sensor_id;sensor_type;location;lat;lon;timestamp;temperature;humidity
71128;SHT30;59249;59.736;30.568;2023-02-01T00:01:48;1.52;86.77
71128;SHT30;59249;59.736;30.568;2023-02-01T00:04:18;1.49;86.90
71128;SHT30;59249;59.736;30.568;2023-02-01T00:06:47;1.43;86.95
71128;SHT30;59249;59.736;30.568;2023-02-01T00:09:16;1.50;86.84
71128;SHT30;59249;59.736;30.568;2023-02-01T00:11:45;1.52;86.81
71128;SHT30;59249;59.736;30.568;2023-02-01T00:14:14;1.42;86.80
71128;SHT30;59249;59.736;30.568;2023-02-01T00:16:43;1.52;86.76
71128;SHT30;59249;59.736;30.568;2023-02-01T00:19:14;1.49;86.72
71128;SHT30;59249;59.736;30.568;2023-02-01T00:21:44;1.49;86.71
71128;SHT30;59249;59.736;30.568;2023-02-01T00:24:13;1.39;86.69
71128;SHT30;59249;59.736;30.568;2023-02-01T00:26:44;1.45;86.61
71128;SHT30;59249;59.736;30.568;2023-02-01T00:29:17;1.43;86.54
71128;SHT30;59249;59.736;30.568;2023-02-01T00:31:46;1.46;86.30
71128;SHT30;59249;59.736;30.568;2023-02-01T00:34:18;1.43;86.15
71128;SHT30;59249;59.736;30.568;2023-02-01T00:36:49;1.45;86.04
71128;SHT30;59249;59.736;30.568;2023-02-01T00:39:18;1.42;85.91
71128;SHT30;59249;59.736;30.568;2023-02-01T00:41:46;1.55;85.92
71128;SHT30;59249;59.736;30.568;2023-02-01T00:44:15;1.52;85.95
71128;SHT30;59249;59.736;30.568;2023-02-01T00:46:44;1.55;85.87
71128;SHT30;59249;59.736;30.568;2023-02-01T00:49:12;1.48;85.92
71128;SHT30;59249;59.736;30.568;2023-02-01T00:51:41;1.53;85.68
71128;SHT30;59249;59.736;30.568;2023-02-01T00:54:11;1.54;85.75
71128;SHT30;59249;59.736;30.568;2023-02-01T00:56:40;1.46;85.68
71128;SHT30;59249;59.736;30.568;2023-02-01T00:59:11;1.55;85.76
71128;SHT30;59249;59.736;30.568;2023-02-01T01:01:40;1.50;85.71
71128;SHT30;59249;59.736;30.568;2023-02-01T01:04:09;1.50;85.66
71128;SHT30;59249;59.736;30.568;2023-02-01T01:06:37;1.51;85.67
71128;SHT30;59249;59.736;30.568;2023-02-01T01:09:07;1.50;85.63
71128;SHT30;59249;59.736;30.568;2023-02-01T01:11:38;1.58;85.61
71128;SHT30;59249;59.736;30.568;2023-02-01T01:14:09;1.52;85.57
71128;SHT30;59249;59.736;30.568;2023-02-01T01:16:38;1.46;85.60
71128;SHT30;59249;59.736;30.568;2023-02-01T01:19:07;1.37;85.64
71128;SHT30;59249;59.736;30.568;2023-02-01T01:21:36;1.34;85.67
71128;SHT30;59249;59.736;30.568;2023-02-01T01:24:05;1.46;85.60
71128;SHT30;59249;59.736;30.568;2023-02-01T01:26:34;1.43;85.53
71128;SHT30;59249;59.736;30.568;2023-02-01T01:29:04;1.41;85.51
71128;SHT30;59249;59.736;30.568;2023-02-01T01:31:32;1.35;85.50
71128;SHT30;59249;59.736;30.568;2023-02-01T01:34:01;1.46;85.30
71128;SHT30;59249;59.736;30.568;2023-02-01T01:36:30;1.28;85.59
71128;SHT30;59249;59.736;30.568;2023-02-01T01:38:59;1.30;85.35
71128;SHT30;59249;59.736;30.568;2023-02-01T01:41:31;1.38;85.58
71128;SHT30;59249;59.736;30.568;2023-02-01T01:44:59;1.35;85.29
71128;SHT30;59249;59.736;30.568;2023-02-01T01:47:35;1.30;85.27
71128;SHT30;59249;59.736;30.568;2023-02-01T01:50:10;1.28;85.33
71128;SHT30;59249;59.736;30.568;2023-02-01T01:52:42;1.29;85.42
71128;SHT30;59249;59.736;30.568;2023-02-01T01:55:13;1.41;85.36
71128;SHT30;59249;59.736;30.568;2023-02-01T01:57:48;1.35;85.34
71128;SHT30;59249;59.736;30.568;2023-02-01T02:00:21;1.29;85.68
71128;SHT30;59249;59.736;30.568;2023-02-01T02:02:58;1.33;85.17
71128;SHT30;59249;59.736;30.568;2023-02-01T02:05:27;1.33;85.49
71128;SHT30;59249;59.736;30.568;2023-02-01T02:07:59;1.37;85.19
71128;SHT30;59249;59.736;30.568;2023-02-01T02:10:30;1.32;85.56
71128;SHT30;59249;59.736;30.568;2023-02-01T02:13:14;1.34;85.40
71128;SHT30;59249;59.736;30.568;2023-02-01T02:16:03;1.30;85.33
71128;SHT30;59249;59.736;30.568;2023-02-01T02:18:44;1.35;85.25
71128;SHT30;59249;59.736;30.568;2023-02-01T02:21:36;1.36;84.99
71128;SHT30;59249;59.736;30.568;2023-02-01T02:24:34;1.33;85.27
71128;SHT30;59249;59.736;30.568;2023-02-01T02:27:19;1.27;85.37
71128;SHT30;59249;59.736;30.568;2023-02-01T02:30:39;1.27;85.27
71128;SHT30;59249;59.736;30.568;2023-02-01T02:33:50;1.31;85.30
71128;SHT30;59249;59.736;30.568;2023-02-01T02:36:31;1.38;85.28
71128;SHT30;59249;59.736;30.568;2023-02-01T02:39:10;1.34;85.37
71128;SHT30;59249;59.736;30.568;2023-02-01T02:41:51;1.34;85.45
71128;SHT30;59249;59.736;30.568;2023-02-01T02:44:48;1.32;85.49
71128;SHT30;59249;59.736;30.568;2023-02-01T02:47:45;1.33;85.06
71128;SHT30;59249;59.736;30.568;2023-02-01T02:50:27;1.33;85.51
71128;SHT30;59249;59.736;30.568;2023-02-01T02:53:19;1.32;85.13
71128;SHT30;59249;59.736;30.568;2023-02-01T02:56:09;1.24;85.26
71128;SHT30;59249;59.736;30.568;2023-02-01T02:58:58;1.32;85.58
71128;SHT30;59249;59.736;30.568;2023-02-01T03:01:45;1.34;85.22
71128;SHT30;59249;59.736;30.568;2023-02-01T03:04:31;1.37;85.61
71128;SHT30;59249;59.736;30.568;2023-02-01T03:07:14;1.26;85.63
71128;SHT30;59249;59.736;30.568;2023-02-01T03:09:46;1.25;85.80
71128;SHT30;59249;59.736;30.568;2023-02-01T03:12:16;1.31;85.80
71128;SHT30;59249;59.736;30.568;2023-02-01T03:15:10;1.34;85.78
71128;SHT30;59249;59.736;30.568;2023-02-01T03:17:45;1.39;85.80
71128;SHT30;59249;59.736;30.568;2023-02-01T03:20:18;1.30;85.54
71128;SHT30;59249;59.736;30.568;2023-02-01T03:22:52;1.30;85.52
71128;SHT30;59249;59.736;30.568;2023-02-01T03:25:30;1.34;85.61
71128;SHT30;59249;59.736;30.568;2023-02-01T03:28:02;1.30;85.60
71128;SHT30;59249;59.736;30.568;2023-02-01T03:30:37;1.34;85.79
71128;SHT30;59249;59.736;30.568;2023-02-01T03:33:11;1.39;85.47
71128;SHT30;59249;59.736;30.568;2023-02-01T03:35:59;1.30;85.61
71128;SHT30;59249;59.736;30.568;2023-02-01T03:38:36;1.25;85.72
71128;SHT30;59249;59.736;30.568;2023-02-01T03:41:17;1.34;85.60
71128;SHT30;59249;59.736;30.568;2023-02-01T03:43:55;1.26;85.45
71128;SHT30;59249;59.736;30.568;2023-02-01T03:46:32;1.18;85.50
71128;SHT30;59249;59.736;30.568;2023-02-01T03:49:07;1.30;85.40
71128;SHT30;59249;59.736;30.568;2023-02-01T03:51:40;1.33;85.40
71128;SHT30;59249;59.736;30.568;2023-02-01T03:54:13;1.32;85.27
71128;SHT30;59249;59.736;30.568;2023-02-01T03:56:46;1.32;85.29
71128;SHT30;59249;59.736;30.568;2023-02-01T03:59:16;1.23;85.33
71128;SHT30;59249;59.736;30.568;2023-02-01T04:01:45;1.27;85.08
71128;SHT30;59249;59.736;30.568;2023-02-01T04:04:13;1.36;85.35
71128;SHT30;59249;59.736;30.568;2023-02-01T04:06:50;1.32;84.93
71128;SHT30;59249;59.736;30.568;2023-02-01T04:09:21;1.32;85.05
71128;SHT30;59249;59.736;30.568;2023-02-01T04:11:50;1.26;85.40
71128;SHT30;59249;59.736;30.568;2023-02-01T04:14:18;1.31;85.47
71128;SHT30;59249;59.736;30.568;2023-02-01T04:16:47;1.34;85.52
71128;SHT30;59249;59.736;30.568;2023-02-01T04:19:16;1.19;85.54
71128;SHT30;59249;59.736;30.568;2023-02-01T04:21:44;1.28;85.67
71128;SHT30;59249;59.736;30.568;2023-02-01T04:24:13;1.24;85.55
71128;SHT30;59249;59.736;30.568;2023-02-01T04:26:43;1.22;85.60
71128;SHT30;59249;59.736;30.568;2023-02-01T04:29:12;1.27;85.34
71128;SHT30;59249;59.736;30.568;2023-02-01T04:31:41;1.25;85.60
71128;SHT30;59249;59.736;30.568;2023-02-01T04:34:10;1.34;85.17
71128;SHT30;59249;59.736;30.568;2023-02-01T04:36:38;1.34;85.50
71128;SHT30;59249;59.736;30.568;2023-02-01T04:39:09;1.29;85.52
71128;SHT30;59249;59.736;30.568;2023-02-01T04:41:37;1.26;85.55
71128;SHT30;59249;59.736;30.568;2023-02-01T04:44:14;1.35;85.54
71128;SHT30;59249;59.736;30.568;2023-02-01T04:46:45;1.32;85.46
71128;SHT30;59249;59.736;30.568;2023-02-01T04:49:14;1.22;85.55
71128;SHT30;59249;59.736;30.568;2023-02-01T04:51:43;1.24;85.49
71128;SHT30;59249;59.736;30.568;2023-02-01T04:54:12;1.23;85.65
71128;SHT30;59249;59.736;30.568;2023-02-01T04:56:41;1.27;85.54
71128;SHT30;59249;59.736;30.568;2023-02-01T04:59:12;1.39;85.52
71128;SHT30;59249;59.736;30.568;2023-02-01T05:01:40;1.32;85.62
71128;SHT30;59249;59.736;30.568;2023-02-01T05:04:09;1.17;85.61
71128;SHT30;59249;59.736;30.568;2023-02-01T05:06:38;1.29;85.66
71128;SHT30;59249;59.736;30.568;2023-02-01T05:09:07;1.17;85.68
71128;SHT30;59249;59.736;30.568;2023-02-01T05:11:35;1.20;85.61
71128;SHT30;59249;59.736;30.568;2023-02-01T05:14:23;1.18;85.49
71128;SHT30;59249;59.736;30.568;2023-02-01T05:16:52;1.17;85.67
71128;SHT30;59249;59.736;30.568;2023-02-01T05:19:21;1.14;85.44
71128;SHT30;59249;59.736;30.568;2023-02-01T05:21:49;1.11;85.62
71128;SHT30;59249;59.736;30.568;2023-02-01T05:24:18;1.13;85.66
71128;SHT30;59249;59.736;30.568;2023-02-01T05:26:48;1.09;85.53
71128;SHT30;59249;59.736;30.568;2023-02-01T05:29:18;1.16;85.58
71128;SHT30;59249;59.736;30.568;2023-02-01T05:31:49;1.13;85.44
71128;SHT30;59249;59.736;30.568;2023-02-01T05:34:17;1.07;85.55
71128;SHT30;59249;59.736;30.568;2023-02-01T05:36:47;1.07;85.55
71128;SHT30;59249;59.736;30.568;2023-02-01T05:39:16;1.11;85.66
71128;SHT30;59249;59.736;30.568;2023-02-01T05:41:45;0.97;85.83
71128;SHT30;59249;59.736;30.568;2023-02-01T05:44:15;1.11;85.62
71128;SHT30;59249;59.736;30.568;2023-02-01T05:46:46;1.15;85.74
71128;SHT30;59249;59.736;30.568;2023-02-01T05:49:20;1.15;85.67
71128;SHT30;59249;59.736;30.568;2023-02-01T05:51:50;1.19;85.71
71128;SHT30;59249;59.736;30.568;2023-02-01T05:54:18;1.17;85.61
71128;SHT30;59249;59.736;30.568;2023-02-01T05:56:47;1.17;85.49
71128;SHT30;59249;59.736;30.568;2023-02-01T05:59:16;1.16;85.45
71128;SHT30;59249;59.736;30.568;2023-02-01T06:01:46;1.20;85.44
71128;SHT30;59249;59.736;30.568;2023-02-01T06:04:17;1.23;85.41
71128;SHT30;59249;59.736;30.568;2023-02-01T06:06:50;1.23;85.32
71128;SHT30;59249;59.736;30.568;2023-02-01T06:09:23;1.19;85.40
71128;SHT30;59249;59.736;30.568;2023-02-01T06:11:56;1.24;85.27
71128;SHT30;59249;59.736;30.568;2023-02-01T06:14:25;1.17;85.25
71128;SHT30;59249;59.736;30.568;2023-02-01T06:16:58;1.23;85.07
71128;SHT30;59249;59.736;30.568;2023-02-01T06:19:26;1.25;85.19
71128;SHT30;59249;59.736;30.568;2023-02-01T06:21:57;1.24;85.03
71128;SHT30;59249;59.736;30.568;2023-02-01T06:24:27;1.24;85.12
71128;SHT30;59249;59.736;30.568;2023-02-01T06:27:00;1.30;85.01
71128;SHT30;59249;59.736;30.568;2023-02-01T06:29:32;1.27;84.96
71128;SHT30;59249;59.736;30.568;2023-02-01T06:32:01;1.29;84.79
71128;SHT30;59249;59.736;30.568;2023-02-01T06:34:30;1.35;84.79
71128;SHT30;59249;59.736;30.568;2023-02-01T06:37:00;1.34;84.43
71128;SHT30;59249;59.736;30.568;2023-02-01T06:39:32;1.31;84.44
71128;SHT30;59249;59.736;30.568;2023-02-01T06:42:01;1.37;84.39
71128;SHT30;59249;59.736;30.568;2023-02-01T06:44:30;1.32;84.21
71128;SHT30;59249;59.736;30.568;2023-02-01T06:47:03;1.37;84.50
71128;SHT30;59249;59.736;30.568;2023-02-01T06:49:35;1.42;84.09
71128;SHT30;59249;59.736;30.568;2023-02-01T06:52:05;1.39;84.10
71128;SHT30;59249;59.736;30.568;2023-02-01T06:54:35;1.36;83.07
71128;SHT30;59249;59.736;30.568;2023-02-01T06:57:06;1.34;82.29
71128;SHT30;59249;59.736;30.568;2023-02-01T06:59:35;1.43;82.73
71128;SHT30;59249;59.736;30.568;2023-02-01T07:02:05;1.41;82.83
71128;SHT30;59249;59.736;30.568;2023-02-01T07:04:36;1.42;82.74
71128;SHT30;59249;59.736;30.568;2023-02-01T07:07:09;1.47;82.95
71128;SHT30;59249;59.736;30.568;2023-02-01T07:09:39;1.62;82.64
71128;SHT30;59249;59.736;30.568;2023-02-01T07:12:07;1.62;82.70
71128;SHT30;59249;59.736;30.568;2023-02-01T07:14:36;1.58;82.57
71128;SHT30;59249;59.736;30.568;2023-02-01T07:17:05;1.69;82.56
71128;SHT30;59249;59.736;30.568;2023-02-01T07:19:34;1.62;82.40
71128;SHT30;59249;59.736;30.568;2023-02-01T07:22:03;1.66;82.28
71128;SHT30;59249;59.736;30.568;2023-02-01T07:24:35;1.76;82.10
71128;SHT30;59249;59.736;30.568;2023-02-01T07:27:04;1.71;82.07
71128;SHT30;59249;59.736;30.568;2023-02-01T07:29:33;1.74;81.79
71128;SHT30;59249;59.736;30.568;2023-02-01T07:32:01;1.68;81.77
71128;SHT30;59249;59.736;30.568;2023-02-01T07:34:30;1.77;81.94
71128;SHT30;59249;59.736;30.568;2023-02-01T07:37:04;1.66;81.83
71128;SHT30;59249;59.736;30.568;2023-02-01T07:39:35;1.64;81.90
71128;SHT30;59249;59.736;30.568;2023-02-01T07:42:05;1.67;81.82
71128;SHT30;59249;59.736;30.568;2023-02-01T07:44:34;1.64;81.93
71128;SHT30;59249;59.736;30.568;2023-02-01T07:47:03;1.68;82.01
71128;SHT30;59249;59.736;30.568;2023-02-01T07:49:32;1.73;81.75
71128;SHT30;59249;59.736;30.568;2023-02-01T07:52:01;1.74;81.83
71128;SHT30;59249;59.736;30.568;2023-02-01T07:54:32;1.78;81.88
71128;SHT30;59249;59.736;30.568;2023-02-01T07:57:03;1.87;81.88
71128;SHT30;59249;59.736;30.568;2023-02-01T07:59:33;1.90;81.98
71128;SHT30;59249;59.736;30.568;2023-02-01T08:02:39;1.95;81.92
71128;SHT30;59249;59.736;30.568;2023-02-01T08:05:07;1.93;81.75
71128;SHT30;59249;59.736;30.568;2023-02-01T08:07:36;1.93;81.74
71128;SHT30;59249;59.736;30.568;2023-02-01T08:10:06;2.02;81.71
71128;SHT30;59249;59.736;30.568;2023-02-01T08:12:40;1.90;81.53
71128;SHT30;59249;59.736;30.568;2023-02-01T08:15:10;1.88;81.64
71128;SHT30;59249;59.736;30.568;2023-02-01T08:17:39;1.95;81.48
71128;SHT30;59249;59.736;30.568;2023-02-01T08:20:11;1.98;81.53
71128;SHT30;59249;59.736;30.568;2023-02-01T08:22:41;1.91;81.60
71128;SHT30;59249;59.736;30.568;2023-02-01T08:25:13;2.04;81.65
71128;SHT30;59249;59.736;30.568;2023-02-01T08:27:48;2.10;81.47
71128;SHT30;59249;59.736;30.568;2023-02-01T08:30:18;2.11;81.26
71128;SHT30;59249;59.736;30.568;2023-02-01T08:32:47;2.05;81.12
71128;SHT30;59249;59.736;30.568;2023-02-01T08:35:17;2.09;80.69
71128;SHT30;59249;59.736;30.568;2023-02-01T08:37:59;2.16;80.11
71128;SHT30;59249;59.736;30.568;2023-02-01T08:40:30;2.05;79.59
71128;SHT30;59249;59.736;30.568;2023-02-01T08:43:03;2.13;79.33
71128;SHT30;59249;59.736;30.568;2023-02-01T08:45:32;2.18;77.76
71128;SHT30;59249;59.736;30.568;2023-02-01T08:48:00;2.19;77.02
71128;SHT30;59249;59.736;30.568;2023-02-01T08:50:29;2.17;77.21
71128;SHT30;59249;59.736;30.568;2023-02-01T08:52:58;2.12;77.47
71128;SHT30;59249;59.736;30.568;2023-02-01T08:55:26;2.22;77.80
71128;SHT30;59249;59.736;30.568;2023-02-01T08:57:57;2.18;77.89
71128;SHT30;59249;59.736;30.568;2023-02-01T09:00:28;2.22;77.82
71128;SHT30;59249;59.736;30.568;2023-02-01T09:03:00;2.06;77.45
71128;SHT30;59249;59.736;30.568;2023-02-01T09:05:29;2.11;77.41
71128;SHT30;59249;59.736;30.568;2023-02-01T09:08:14;2.11;77.96
71128;SHT30;59249;59.736;30.568;2023-02-01T09:10:43;2.20;78.12
71128;SHT30;59249;59.736;30.568;2023-02-01T09:13:12;2.14;78.23
71128;SHT30;59249;59.736;30.568;2023-02-01T09:15:44;2.18;78.26
71128;SHT30;59249;59.736;30.568;2023-02-01T09:18:15;2.29;78.34
71128;SHT30;59249;59.736;30.568;2023-02-01T09:20:44;2.28;77.98
71128;SHT30;59249;59.736;30.568;2023-02-01T09:23:13;2.13;77.68
71128;SHT30;59249;59.736;30.568;2023-02-01T09:25:41;2.29;77.19
71128;SHT30;59249;59.736;30.568;2023-02-01T09:28:11;2.25;77.09
71128;SHT30;59249;59.736;30.568;2023-02-01T09:30:40;2.27;76.88
71128;SHT30;59249;59.736;30.568;2023-02-01T09:33:16;2.29;76.85
71128;SHT30;59249;59.736;30.568;2023-02-01T09:35:46;2.38;77.24
71128;SHT30;59249;59.736;30.568;2023-02-01T09:38:15;2.29;77.40
71128;SHT30;59249;59.736;30.568;2023-02-01T09:40:47;2.39;76.97
71128;SHT30;59249;59.736;30.568;2023-02-01T09:43:29;2.41;77.43
71128;SHT30;59249;59.736;30.568;2023-02-01T09:46:18;2.45;77.68
71128;SHT30;59249;59.736;30.568;2023-02-01T09:49:04;2.58;77.45
71128;SHT30;59249;59.736;30.568;2023-02-01T09:51:41;2.44;78.10
71128;SHT30;59249;59.736;30.568;2023-02-01T09:54:17;2.58;77.88
71128;SHT30;59249;59.736;30.568;2023-02-01T09:56:51;2.63;77.29
71128;SHT30;59249;59.736;30.568;2023-02-01T09:59:34;2.53;77.92
71128;SHT30;59249;59.736;30.568;2023-02-01T10:02:14;2.57;77.68
71128;SHT30;59249;59.736;30.568;2023-02-01T10:04:49;2.60;78.08
71128;SHT30;59249;59.736;30.568;2023-02-01T10:07:31;2.55;77.48
71128;SHT30;59249;59.736;30.568;2023-02-01T10:10:07;2.55;77.64
71128;SHT30;59249;59.736;30.568;2023-02-01T10:13:14;2.46;77.03
71128;SHT30;59249;59.736;30.568;2023-02-01T10:16:01;2.32;76.80
71128;SHT30;59249;59.736;30.568;2023-02-01T10:19:22;2.46;77.18
71128;SHT30;59249;59.736;30.568;2023-02-01T10:22:08;2.41;77.97
71128;SHT30;59249;59.736;30.568;2023-02-01T10:24:50;2.52;76.67
71128;SHT30;59249;59.736;30.568;2023-02-01T10:27:35;2.46;76.43
71128;SHT30;59249;59.736;30.568;2023-02-01T10:30:23;2.50;76.46
71128;SHT30;59249;59.736;30.568;2023-02-01T10:33:16;2.60;76.55
71128;SHT30;59249;59.736;30.568;2023-02-01T10:35:55;2.62;76.57
71128;SHT30;59249;59.736;30.568;2023-02-01T10:38:42;2.74;76.63
71128;SHT30;59249;59.736;30.568;2023-02-01T10:41:31;2.82;76.28
71128;SHT30;59249;59.736;30.568;2023-02-01T10:44:13;2.81;76.63
71128;SHT30;59249;59.736;30.568;2023-02-01T10:46:43;2.78;77.13
71128;SHT30;59249;59.736;30.568;2023-02-01T10:49:21;2.93;77.29
71128;SHT30;59249;59.736;30.568;2023-02-01T10:52:01;3.04;76.52
71128;SHT30;59249;59.736;30.568;2023-02-01T10:54:39;3.11;76.10
71128;SHT30;59249;59.736;30.568;2023-02-01T10:57:10;2.97;76.41
71128;SHT30;59249;59.736;30.568;2023-02-01T10:59:39;3.18;76.18
71128;SHT30;59249;59.736;30.568;2023-02-01T11:02:22;3.21;75.87
71128;SHT30;59249;59.736;30.568;2023-02-01T11:05:04;3.23;76.01
71128;SHT30;59249;59.736;30.568;2023-02-01T11:07:40;3.11;76.70
71128;SHT30;59249;59.736;30.568;2023-02-01T11:10:38;3.16;77.40
71128;SHT30;59249;59.736;30.568;2023-02-01T11:13:17;3.13;76.64
71128;SHT30;59249;59.736;30.568;2023-02-01T11:16:02;3.13;77.11
71128;SHT30;59249;59.736;30.568;2023-02-01T11:18:36;3.22;76.63
71128;SHT30;59249;59.736;30.568;2023-02-01T11:21:10;3.16;76.62
71128;SHT30;59249;59.736;30.568;2023-02-01T11:23:43;3.17;76.30
71128;SHT30;59249;59.736;30.568;2023-02-01T11:26:24;3.24;76.60
71128;SHT30;59249;59.736;30.568;2023-02-01T11:29:03;3.26;76.37
71128;SHT30;59249;59.736;30.568;2023-02-01T11:31:46;3.20;76.58
71128;SHT30;59249;59.736;30.568;2023-02-01T11:34:19;3.10;76.25
71128;SHT30;59249;59.736;30.568;2023-02-01T11:36:50;3.11;76.36
71128;SHT30;59249;59.736;30.568;2023-02-01T11:39:26;3.20;76.47
71128;SHT30;59249;59.736;30.568;2023-02-01T11:42:03;3.22;76.42
71128;SHT30;59249;59.736;30.568;2023-02-01T11:44:36;3.13;76.39
71128;SHT30;59249;59.736;30.568;2023-02-01T11:47:27;3.18;76.15
71128;SHT30;59249;59.736;30.568;2023-02-01T11:50:00;3.11;76.28
71128;SHT30;59249;59.736;30.568;2023-02-01T11:52:43;3.08;76.54
71128;SHT30;59249;59.736;30.568;2023-02-01T11:55:45;3.02;76.52
71128;SHT30;59249;59.736;30.568;2023-02-01T11:59:00;3.11;76.86
71128;SHT30;59249;59.736;30.568;2023-02-01T12:01:53;3.03;76.74
71128;SHT30;59249;59.736;30.568;2023-02-01T12:05:06;3.02;76.75
71128;SHT30;59249;59.736;30.568;2023-02-01T12:07:59;3.02;77.11
71128;SHT30;59249;59.736;30.568;2023-02-01T12:10:44;3.01;76.85
71128;SHT30;59249;59.736;30.568;2023-02-01T12:13:33;3.00;76.95
71128;SHT30;59249;59.736;30.568;2023-02-01T12:16:21;3.02;76.62
71128;SHT30;59249;59.736;30.568;2023-02-01T12:19:29;3.20;76.72
71128;SHT30;59249;59.736;30.568;2023-02-01T12:22:29;3.04;76.91
71128;SHT30;59249;59.736;30.568;2023-02-01T12:25:30;3.13;76.58
71128;SHT30;59249;59.736;30.568;2023-02-01T12:28:38;3.00;76.80
71128;SHT30;59249;59.736;30.568;2023-02-01T12:34:55;2.88;77.02
71128;SHT30;59249;59.736;30.568;2023-02-01T12:37:46;2.83;77.27
71128;SHT30;59249;59.736;30.568;2023-02-01T12:40:37;2.85;77.29
71128;SHT30;59249;59.736;30.568;2023-02-01T12:43:16;2.86;77.50
71128;SHT30;59249;59.736;30.568;2023-02-01T12:45:58;2.83;77.44
71128;SHT30;59249;59.736;30.568;2023-02-01T12:48:34;2.75;77.50
71128;SHT30;59249;59.736;30.568;2023-02-01T12:51:12;2.73;77.49
71128;SHT30;59249;59.736;30.568;2023-02-01T12:53:50;2.71;77.90
71128;SHT30;59249;59.736;30.568;2023-02-01T12:56:24;2.68;77.83
71128;SHT30;59249;59.736;30.568;2023-02-01T12:58:58;2.58;78.17
71128;SHT30;59249;59.736;30.568;2023-02-01T13:01:35;2.61;78.27
71128;SHT30;59249;59.736;30.568;2023-02-01T13:04:13;2.51;78.44
71128;SHT30;59249;59.736;30.568;2023-02-01T13:06:48;2.53;78.72
71128;SHT30;59249;59.736;30.568;2023-02-01T13:09:24;2.41;78.77
71128;SHT30;59249;59.736;30.568;2023-02-01T13:12:00;2.57;79.04
71128;SHT30;59249;59.736;30.568;2023-02-01T13:14:41;2.52;79.14
71128;SHT30;59249;59.736;30.568;2023-02-01T13:17:16;2.53;79.12
71128;SHT30;59249;59.736;30.568;2023-02-01T13:19:53;2.63;79.09
71128;SHT30;59249;59.736;30.568;2023-02-01T13:22:29;2.48;79.35
71128;SHT30;59249;59.736;30.568;2023-02-01T13:25:02;2.46;79.43
71128;SHT30;59249;59.736;30.568;2023-02-01T13:27:33;2.43;79.47
71128;SHT30;59249;59.736;30.568;2023-02-01T13:30:10;2.47;79.33
71128;SHT30;59249;59.736;30.568;2023-02-01T13:33:24;2.42;79.57
71128;SHT30;59249;59.736;30.568;2023-02-01T13:36:44;2.52;79.28
71128;SHT30;59249;59.736;30.568;2023-02-01T13:39:59;2.48;79.28
71128;SHT30;59249;59.736;30.568;2023-02-01T13:42:47;2.39;79.60
71128;SHT30;59249;59.736;30.568;2023-02-01T13:45:20;2.25;79.70
71128;SHT30;59249;59.736;30.568;2023-02-01T13:47:56;2.41;79.89
71128;SHT30;59249;59.736;30.568;2023-02-01T13:50:30;2.38;79.85
71128;SHT30;59249;59.736;30.568;2023-02-01T13:53:05;2.35;79.83
71128;SHT30;59249;59.736;30.568;2023-02-01T13:55:46;2.41;79.87
71128;SHT30;59249;59.736;30.568;2023-02-01T13:58:20;2.39;79.79
71128;SHT30;59249;59.736;30.568;2023-02-01T14:00:51;2.30;79.81
71128;SHT30;59249;59.736;30.568;2023-02-01T14:03:46;2.16;79.84
71128;SHT30;59249;59.736;30.568;2023-02-01T14:06:36;2.13;79.86
71128;SHT30;59249;59.736;30.568;2023-02-01T14:09:32;2.15;79.93
71128;SHT30;59249;59.736;30.568;2023-02-01T14:12:44;2.05;79.91
71128;SHT30;59249;59.736;30.568;2023-02-01T14:15:26;2.07;79.78
71128;SHT30;59249;59.736;30.568;2023-02-01T14:17:55;2.04;80.05
71128;SHT30;59249;59.736;30.568;2023-02-01T14:20:50;2.09;80.06
71128;SHT30;59249;59.736;30.568;2023-02-01T14:23:29;2.05;79.88
71128;SHT30;59249;59.736;30.568;2023-02-01T14:26:19;2.10;79.99
71128;SHT30;59249;59.736;30.568;2023-02-01T14:28:59;2.06;79.95
71128;SHT30;59249;59.736;30.568;2023-02-01T14:32:04;2.02;80.00
71128;SHT30;59249;59.736;30.568;2023-02-01T14:34:53;2.11;79.96
71128;SHT30;59249;59.736;30.568;2023-02-01T14:37:30;2.07;80.10
71128;SHT30;59249;59.736;30.568;2023-02-01T14:40:04;2.12;79.92
71128;SHT30;59249;59.736;30.568;2023-02-01T14:42:39;2.09;79.91
71128;SHT30;59249;59.736;30.568;2023-02-01T14:45:48;2.01;79.99
71128;SHT30;59249;59.736;30.568;2023-02-01T14:48:45;2.03;80.08
71128;SHT30;59249;59.736;30.568;2023-02-01T14:51:18;2.05;80.09
71128;SHT30;59249;59.736;30.568;2023-02-01T14:53:50;2.08;80.04
71128;SHT30;59249;59.736;30.568;2023-02-01T14:56:19;2.06;79.87
71128;SHT30;59249;59.736;30.568;2023-02-01T14:58:56;1.93;80.04
71128;SHT30;59249;59.736;30.568;2023-02-01T15:01:29;1.97;80.03
71128;SHT30;59249;59.736;30.568;2023-02-01T15:04:04;1.96;80.20
71128;SHT30;59249;59.736;30.568;2023-02-01T15:06:39;1.95;80.11
71128;SHT30;59249;59.736;30.568;2023-02-01T15:09:16;1.92;80.22
71128;SHT30;59249;59.736;30.568;2023-02-01T15:12:18;1.90;80.09
71128;SHT30;59249;59.736;30.568;2023-02-01T15:15:13;1.99;80.22
71128;SHT30;59249;59.736;30.568;2023-02-01T15:17:52;1.90;80.24
71128;SHT30;59249;59.736;30.568;2023-02-01T15:20:23;1.93;80.40
71128;SHT30;59249;59.736;30.568;2023-02-01T15:22:57;1.96;80.34
71128;SHT30;59249;59.736;30.568;2023-02-01T15:25:34;1.93;80.19
71128;SHT30;59249;59.736;30.568;2023-02-01T15:28:05;2.04;80.34
71128;SHT30;59249;59.736;30.568;2023-02-01T15:30:36;1.93;80.32
71128;SHT30;59249;59.736;30.568;2023-02-01T15:33:15;1.96;80.36
71128;SHT30;59249;59.736;30.568;2023-02-01T15:35:47;2.02;80.31
71128;SHT30;59249;59.736;30.568;2023-02-01T15:38:34;1.99;80.22
71128;SHT30;59249;59.736;30.568;2023-02-01T15:41:12;1.95;80.28
71128;SHT30;59249;59.736;30.568;2023-02-01T15:43:46;1.97;80.25
71128;SHT30;59249;59.736;30.568;2023-02-01T15:46:29;1.91;80.34
71128;SHT30;59249;59.736;30.568;2023-02-01T15:49:02;1.98;80.31
71128;SHT30;59249;59.736;30.568;2023-02-01T15:51:32;1.94;80.48
71128;SHT30;59249;59.736;30.568;2023-02-01T15:54:04;1.83;80.35
71128;SHT30;59249;59.736;30.568;2023-02-01T15:56:39;1.84;80.49
71128;SHT30;59249;59.736;30.568;2023-02-01T15:59:16;1.93;80.45
71128;SHT30;59249;59.736;30.568;2023-02-01T16:01:46;1.84;80.46
71128;SHT30;59249;59.736;30.568;2023-02-01T16:04:19;1.77;80.32
71128;SHT30;59249;59.736;30.568;2023-02-01T16:06:51;1.81;80.50
71128;SHT30;59249;59.736;30.568;2023-02-01T16:09:24;1.78;80.51
71128;SHT30;59249;59.736;30.568;2023-02-01T16:12:01;1.80;80.44
71128;SHT30;59249;59.736;30.568;2023-02-01T16:14:34;1.82;80.74
71128;SHT30;59249;59.736;30.568;2023-02-01T16:17:05;1.75;80.60
71128;SHT30;59249;59.736;30.568;2023-02-01T16:19:34;1.64;80.55
71128;SHT30;59249;59.736;30.568;2023-02-01T16:22:04;1.73;80.41
71128;SHT30;59249;59.736;30.568;2023-02-01T16:24:34;1.82;80.50
71128;SHT30;59249;59.736;30.568;2023-02-01T16:27:05;1.63;80.54
71128;SHT30;59249;59.736;30.568;2023-02-01T16:29:36;1.70;80.49
71128;SHT30;59249;59.736;30.568;2023-02-01T16:32:16;1.62;80.37